Time;durP1;ratioP1;P1;durP2;ratioP2;P2;SDS_P1;SDS_P2;PMS_P1;PMS_P2;Temp;Humidity;BMP_temperature;BMP_pressure;BME280_temperature;BME280_humidity;BME280_pressure;Samples;Min_cycle;Max_cycle;Signal;HPM_P1;HPM_P2
2023/06/30 00:01:55;;;;;;;20.23;11.80;;;;;;;20.95;56.46;100482.63;4995647;28;20034;-92
2023/06/30 00:04:27;;;;;;;23.73;11.77;;;;;;;20.99;56.53;100474.91;4997508;28;20026;-95
2023/06/30 00:06:56;;;;;;;21.42;13.00;;;;;;;21.08;56.82;100512.00;4998854;28;20042;-88
2023/06/30 00:09:23;;;;;;;22.77;11.50;;;;;;;21.02;56.84;100499.13;4991779;28;20110;-88
2023/06/30 00:11:50;;;;;;;30.42;10.82;;;;;;;20.84;56.95;100468.66;4974356;28;20029;-88
2023/06/30 00:14:16;;;;;;;22.40;11.27;;;;;;;20.98;56.97;100486.88;4957045;28;20042;-88
2023/06/30 00:16:41;;;;;;;20.20;10.82;;;;;;;20.80;57.22;100461.88;4973517;28;20046;-88
2023/06/30 00:19:08;;;;;;;28.75;11.75;;;;;;;20.89;57.71;100493.50;4977783;28;20030;-90
2023/06/30 00:21:33;;;;;;;19.90;12.85;;;;;;;20.99;57.71;100496.78;4959820;28;20046;-89
2023/06/30 00:24:01;;;;;;;30.08;14.10;;;;;;;20.84;57.73;100479.59;4972964;28;20027;-90
2023/06/30 00:26:28;;;;;;;21.45;11.82;;;;;;;20.69;57.84;100470.59;4972845;28;20030;-88
2023/06/30 00:28:54;;;;;;;28.05;13.45;;;;;;;20.87;58.22;100490.13;4955906;28;20031;-91
2023/06/30 00:31:20;;;;;;;32.88;12.45;;;;;;;20.74;58.21;100474.44;4974701;28;20029;-90
2023/06/30 00:33:46;;;;;;;24.27;11.98;;;;;;;20.72;58.55;100475.66;4973720;28;20065;-90
2023/06/30 00:36:11;;;;;;;20.92;12.40;;;;;;;20.70;58.81;100467.69;4955978;28;20035;-90
2023/06/30 00:38:37;;;;;;;24.88;10.65;;;;;;;20.64;59.00;100473.88;4973895;28;20031;-90
2023/06/30 00:41:02;;;;;;;15.50;9.23;;;;;;;20.64;58.60;100482.09;4975243;28;20027;-89
2023/06/30 00:43:28;;;;;;;26.05;10.18;;;;;;;20.70;58.43;100472.28;4974628;28;20022;-91
2023/06/30 00:45:53;;;;;;;16.50;7.95;;;;;;;20.78;58.07;100496.75;4984166;28;20041;-90
2023/06/30 00:48:19;;;;;;;15.07;7.82;;;;;;;20.61;58.19;100461.47;4978952;28;20094;-90
2023/06/30 00:50:45;;;;;;;33.63;8.98;;;;;;;20.77;58.70;100497.78;4956359;28;20442;-90
2023/06/30 00:53:12;;;;;;;23.02;9.68;;;;;;;20.71;58.82;100479.44;4955591;28;20038;-89
2023/06/30 00:55:40;;;;;;;20.02;8.65;;;;;;;20.71;58.84;100485.75;4955445;28;20022;-90
2023/06/30 00:58:05;;;;;;;25.25;8.50;;;;;;;20.57;58.74;100468.38;4973196;28;20093;-89
2023/06/30 01:00:31;;;;;;;23.77;8.32;;;;;;;20.57;59.14;100471.13;4972966;28;20026;-89
2023/06/30 01:03:05;;;;;;;16.05;7.93;;;;;;;20.78;58.69;100504.97;4956078;28;20419;-90
2023/06/30 01:05:42;;;;;;;16.58;8.23;;;;;;;20.64;58.83;100493.88;4973486;28;20105;-89
2023/06/30 01:08:41;;;;;;;6.78;4.25;;;;;;;20.67;57.62;100495.41;4976832;28;20085;-88
2023/06/30 01:11:09;;;;;;;8.45;3.88;;;;;;;20.51;56.86;100463.69;4903047;29;20156;-89
2023/06/30 01:13:35;;;;;;;52.80;9.48;;;;;;;20.85;56.61;100509.47;4913389;29;20044;-89
2023/06/30 01:16:04;;;;;;;28.50;6.60;;;;;;;20.83;57.83;100497.00;4913138;29;20460;-89
2023/06/30 01:18:36;;;;;;;20.73;4.68;;;;;;;20.79;57.32;100493.00;4913195;29;20440;-90
2023/06/30 01:21:04;;;;;;;20.58;6.40;;;;;;;20.81;57.36;100486.28;4912666;29;20611;-90
2023/06/30 01:23:38;;;;;;;44.00;7.72;;;;;;;20.81;57.73;100479.97;4912631;29;20535;-90
2023/06/30 01:26:06;;;;;;;16.13;6.55;;;;;;;20.81;57.87;100486.28;4912486;29;20032;-89
2023/06/30 01:28:35;;;;;;;29.77;8.10;;;;;;;20.95;57.91;100509.13;4912839;29;20504;-90
2023/06/30 01:31:01;;;;;;;9.45;5.93;;;;;;;20.85;57.75;100503.16;4913009;29;20032;-90
2023/06/30 01:33:28;;;;;;;16.58;5.57;;;;;;;20.69;58.20;100490.56;4897795;29;20134;-90
2023/06/30 01:35:53;;;;;;;15.75;6.25;;;;;;;20.68;58.49;100490.75;4912814;29;20044;-90
2023/06/30 01:38:19;;;;;;;11.85;5.47;;;;;;;20.59;58.20;100499.09;4913886;29;20448;-89
2023/06/30 01:40:45;;;;;;;11.80;6.22;;;;;;;20.44;58.26;100465.50;4897817;29;20032;-88
2023/06/30 01:43:12;;;;;;;11.40;5.72;;;;;;;20.50;58.16;100489.31;4915144;29;20472;-89
2023/06/30 01:45:38;;;;;;;13.15;5.57;;;;;;;20.62;58.24;100515.09;4912886;29;20502;-89
2023/06/30 01:48:04;;;;;;;27.95;7.03;;;;;;;20.47;58.38;100488.84;4940908;28;20050;-89
2023/06/30 01:50:31;;;;;;;27.35;5.32;;;;;;;20.54;58.13;100498.81;4975857;28;20054;-88
2023/06/30 01:52:57;;;;;;;19.85;5.30;;;;;;;20.56;58.32;100504.94;4976617;28;20113;-90
2023/06/30 01:55:23;;;;;;;25.05;6.32;;;;;;;20.47;58.73;100489.69;4980855;28;20031;-89
2023/06/30 01:57:48;;;;;;;13.63;5.50;;;;;;;20.41;58.83;100486.88;4959263;28;20046;-90
2023/06/30 02:00:14;;;;;;;7.68;5.32;;;;;;;20.53;58.80;100510.78;4976240;28;20499;-89
2023/06/30 02:02:41;;;;;;;13.50;5.03;;;;;;;20.52;58.54;100505.50;4915495;29;20052;-89
2023/06/30 02:05:07;;;;;;;9.45;5.28;;;;;;;20.33;58.58;100476.94;4900400;29;20036;-90
2023/06/30 02:07:32;;;;;;;12.57;5.25;;;;;;;20.24;58.63;100467.13;4916363;29;20051;-88
2023/06/30 02:09:58;;;;;;;9.45;4.22;;;;;;;20.21;58.58;100467.50;4916268;29;20040;-89
2023/06/30 02:12:23;;;;;;;13.60;4.80;;;;;;;20.36;58.50;100492.94;4920576;29;20120;-91
2023/06/30 02:14:49;;;;;;;12.05;4.40;;;;;;;20.35;58.86;100499.41;4921419;29;20036;-88
2023/06/30 02:17:14;;;;;;;12.63;4.10;;;;;;;20.33;58.71;100493.31;4915843;29;20051;-89
2023/06/30 02:19:40;;;;;;;15.50;4.85;;;;;;;20.32;58.65;100496.22;4900226;29;20510;-89
2023/06/30 02:22:05;;;;;;;28.30;6.05;;;;;;;20.28;58.98;100498.47;4915358;29;20056;-90
2023/06/30 02:24:31;;;;;;;10.38;4.47;;;;;;;20.06;59.05;100474.81;4915631;29;20521;-90
2023/06/30 02:26:56;;;;;;;23.42;5.03;;;;;;;20.18;59.50;100500.66;4915409;29;20036;-87
2023/06/30 02:29:22;;;;;;;23.05;5.80;;;;;;;20.25;59.56;100511.63;4915741;29;20539;-89
2023/06/30 02:31:47;;;;;;;20.50;4.47;;;;;;;20.07;59.68;100498.38;4914976;29;20417;-88
2023/06/30 02:34:13;;;;;;;18.52;5.15;;;;;;;20.18;59.87;100522.50;4957418;28;20046;-89
2023/06/30 02:36:38;;;;;;;36.03;5.80;;;;;;;20.01;60.38;100505.44;4957810;28;20023;-90
2023/06/30 02:39:04;;;;;;;45.00;7.65;;;;;;;20.06;60.44;100519.38;4974733;28;20034;-89
2023/06/30 02:41:29;;;;;;;98.20;13.18;;;;;;;20.02;60.49;100525.41;4958041;28;20031;-88
2023/06/30 02:43:55;;;;;;;36.65;6.75;;;;;;;19.93;60.60;100507.44;4957753;28;20027;-89
2023/06/30 02:46:20;;;;;;;18.23;5.20;;;;;;;19.96;61.12;100517.97;4975363;28;20038;-89
2023/06/30 02:48:46;;;;;;;37.47;6.45;;;;;;;19.91;61.00;100525.84;4975361;28;20050;-88
2023/06/30 02:51:11;;;;;;;22.02;6.43;;;;;;;19.93;60.74;100519.19;4957245;28;20126;-89
2023/06/30 02:53:38;;;;;;;13.50;6.18;;;;;;;19.90;60.48;100505.94;4975169;28;20062;-90
2023/06/30 02:56:03;;;;;;;17.45;6.55;;;;;;;20.06;60.32;100532.16;4976551;28;20034;-90
2023/06/30 02:58:29;;;;;;;44.05;6.60;;;;;;;19.94;60.43;100509.94;4977022;28;20029;-90
2023/06/30 03:00:56;;;;;;;13.65;5.85;;;;;;;20.09;60.25;100529.06;4974988;28;20106;-89
2023/06/30 03:03:22;;;;;;;12.88;4.65;;;;;;;20.10;60.03;100536.22;4976415;28;20058;-89
2023/06/30 03:05:47;;;;;;;13.75;4.50;;;;;;;20.06;59.83;100518.50;4976014;28;20030;-89
2023/06/30 03:08:13;;;;;;;22.23;5.82;;;;;;;19.92;60.36;100503.00;4936735;29;20086;-88
2023/06/30 03:10:38;;;;;;;26.55;5.75;;;;;;;19.94;60.63;100515.41;4935592;29;20047;-87
2023/06/30 03:13:04;;;;;;;46.97;7.55;;;;;;;19.96;60.57;100515.25;4925359;29;20127;-86
2023/06/30 03:15:29;;;;;;;15.75;4.45;;;;;;;19.99;60.62;100526.63;4932378;29;20027;-86
2023/06/30 03:17:55;;;;;;;23.42;4.90;;;;;;;19.95;60.87;100528.03;4915642;29;20047;-86
2023/06/30 03:20:21;;;;;;;18.38;5.25;;;;;;;20.02;60.62;100528.13;4932580;29;20059;-87
2023/06/30 03:22:46;;;;;;;14.05;4.07;;;;;;;19.86;60.60;100512.78;4932133;29;20733;-86
2023/06/30 03:25:12;;;;;;;29.52;6.28;;;;;;;19.83;60.96;100507.72;4931673;29;20032;-87
2023/06/30 03:27:37;;;;;;;13.27;4.82;;;;;;;19.97;60.71;100525.09;4931626;29;20047;-87
2023/06/30 03:30:04;;;;;;;39.58;6.65;;;;;;;19.98;60.64;100510.44;4932495;29;20159;-86
2023/06/30 03:32:31;;;;;;;14.55;5.13;;;;;;;20.00;60.87;100520.13;4916139;29;20575;-85
2023/06/30 03:34:56;;;;;;;31.75;6.55;;;;;;;20.01;60.71;100515.50;4937878;29;20122;-86
2023/06/30 03:37:22;;;;;;;21.98;6.43;;;;;;;20.11;60.61;100527.00;4937211;29;20088;-89
2023/06/30 03:39:47;;;;;;;23.50;5.43;;;;;;;20.08;60.52;100511.00;4961639;28;20046;-86
2023/06/30 03:42:13;;;;;;;32.47;9.43;;;;;;;20.02;60.47;100506.28;4972192;28;20047;-87
2023/06/30 03:44:38;;;;;;;58.33;7.53;;;;;;;20.05;60.77;100497.72;4955642;28;20026;-88
2023/06/30 03:47:04;;;;;;;55.30;8.73;;;;;;;20.19;60.75;100513.25;4971864;28;20031;-86
2023/06/30 03:49:29;;;;;;;48.40;8.73;;;;;;;20.20;60.58;100511.38;4971809;28;20137;-83
2023/06/30 03:51:55;;;;;;;45.08;8.27;;;;;;;20.25;60.48;100508.91;4972634;28;20023;-82
2023/06/30 03:54:20;;;;;;;12.93;5.30;;;;;;;20.35;60.24;100507.63;4972810;28;20034;-82
2023/06/30 03:56:47;;;;;;;22.65;5.47;;;;;;;20.52;59.27;100522.75;4971367;28;20030;-81
2023/06/30 03:59:12;;;;;;;42.38;7.05;;;;;;;20.60;58.77;100519.06;4971181;28;20041;-84
2023/06/30 04:01:40;;;;;;;12.93;4.47;;;;;;;20.71;58.30;100520.44;4971107;28;20101;-84
2023/06/30 04:04:06;;;;;;;16.02;4.80;;;;;;;20.66;58.31;100521.03;4972120;28;20034;-80
2023/06/30 04:06:33;;;;;;;21.70;5.18;;;;;;;20.80;58.46;100527.47;4971721;28;20027;-81
2023/06/30 04:08:59;;;;;;;20.45;5.43;;;;;;;20.86;58.43;100524.81;4971645;28;20035;-80
2023/06/30 04:11:25;;;;;;;16.85;5.30;;;;;;;20.89;58.46;100520.84;4970630;28;20562;-82
2023/06/30 04:13:51;;;;;;;27.10;5.60;;;;;;;20.96;58.62;100536.28;4971069;28;20034;-81
2023/06/30 04:16:17;;;;;;;13.88;5.63;;;;;;;20.94;58.16;100529.34;4970900;28;20019;-81
2023/06/30 04:18:43;;;;;;;29.60;6.47;;;;;;;21.02;57.93;100537.41;4971049;28;20406;-82
2023/06/30 04:21:08;;;;;;;24.88;5.47;;;;;;;20.99;57.75;100521.38;4955940;28;20199;-87
2023/06/30 04:23:34;;;;;;;16.95;4.65;;;;;;;21.03;57.65;100518.06;4976199;28;20037;-84
2023/06/30 04:26:00;;;;;;;20.35;4.80;;;;;;;21.19;57.51;100538.03;4977505;28;20033;-79
2023/06/30 04:28:26;;;;;;;16.73;5.03;;;;;;;21.15;57.53;100532.09;4930478;29;20040;-81
2023/06/30 04:30:52;;;;;;;10.23;5.03;;;;;;;21.20;57.40;100528.75;4931192;29;20048;-80
2023/06/30 04:33:17;;;;;;;21.42;5.47;;;;;;;21.23;57.23;100523.75;4935804;29;20122;-91
2023/06/30 04:35:43;;;;;;;19.50;5.20;;;;;;;21.32;57.27;100539.00;4937578;29;20063;-84
2023/06/30 04:38:09;;;;;;;13.77;4.97;;;;;;;21.41;57.15;100543.28;4949064;28;20060;-92
2023/06/30 04:40:35;;;;;;;23.80;5.85;;;;;;;21.37;56.74;100535.69;4951955;28;20056;-87
2023/06/30 04:43:02;;;;;;;18.02;4.90;;;;;;;21.46;57.26;100529.03;4945242;29;20048;-81
2023/06/30 04:45:27;;;;;;;23.00;7.43;;;;;;;21.50;56.96;100547.56;4938032;29;20103;-83
2023/06/30 04:47:53;;;;;;;24.00;5.50;;;;;;;21.53;57.08;100532.63;4944105;29;20039;-84
2023/06/30 04:50:21;;;;;;;15.98;5.90;;;;;;;21.69;57.43;100563.31;4934673;29;20056;-82
2023/06/30 04:52:46;;;;;;;79.35;10.48;;;;;;;21.80;57.27;100563.84;4933111;29;20115;-86
2023/06/30 04:55:12;;;;;;;24.98;6.20;;;;;;;21.86;57.45;100539.25;4931287;29;20142;-89
2023/06/30 04:57:37;;;;;;;21.90;5.28;;;;;;;21.83;56.89;100544.25;4929695;29;20031;-78
2023/06/30 05:00:03;;;;;;;44.85;8.50;;;;;;;21.93;57.04;100548.38;4959229;28;20106;-85
2023/06/30 05:02:29;;;;;;;29.50;6.35;;;;;;;22.05;57.06;100546.75;4952420;28;20137;-82
2023/06/30 05:04:54;;;;;;;19.40;6.05;;;;;;;22.18;56.60;100551.47;4969631;28;20514;-80
2023/06/30 05:07:20;;;;;;;32.67;7.20;;;;;;;22.17;56.55;100545.13;4969611;28;20031;-87
2023/06/30 05:09:46;;;;;;;14.68;5.30;;;;;;;22.27;56.33;100555.75;4969881;28;20126;-79
2023/06/30 05:12:12;;;;;;;18.58;5.55;;;;;;;22.36;56.02;100557.25;4968973;28;20491;-79
2023/06/30 05:14:38;;;;;;;16.48;5.57;;;;;;;22.40;56.26;100572.25;4968828;28;20057;-80
2023/06/30 05:17:04;;;;;;;28.20;6.25;;;;;;;22.45;56.30;100553.31;4969332;28;20376;-81
2023/06/30 05:19:29;;;;;;;43.53;7.78;;;;;;;22.57;55.94;100557.16;4970445;28;20034;-81
2023/06/30 05:21:54;;;;;;;18.05;6.00;;;;;;;22.56;56.03;100560.97;4969221;28;20026;-79
2023/06/30 05:24:20;;;;;;;22.15;7.72;;;;;;;22.61;55.85;100555.69;4972967;28;20180;-80
2023/06/30 05:26:45;;;;;;;23.42;6.57;;;;;;;22.66;55.86;100555.97;4973152;28;20034;-80
2023/06/30 05:29:11;;;;;;;21.58;7.05;;;;;;;22.71;55.83;100547.97;4973038;28;20105;-77
2023/06/30 05:31:37;;;;;;;23.48;6.40;;;;;;;22.86;55.47;100563.41;4973201;28;20114;-80
2023/06/30 05:34:02;;;;;;;19.70;6.20;;;;;;;22.72;55.70;100540.56;4972656;28;20050;-75
2023/06/30 05:36:29;;;;;;;17.65;6.53;;;;;;;22.85;55.65;100548.00;4973994;28;20415;-76
2023/06/30 05:38:56;;;;;;;12.73;6.38;;;;;;;23.02;55.71;100563.91;4973168;28;20444;-81
2023/06/30 05:41:21;;;;;;;20.25;5.97;;;;;;;23.11;55.66;100564.56;4972352;28;20031;-79
2023/06/30 05:43:46;;;;;;;26.35;6.45;;;;;;;23.17;55.41;100569.22;4971992;28;20031;-76
2023/06/30 05:46:12;;;;;;;17.83;6.75;;;;;;;23.25;55.20;100566.25;4972872;28;20047;-83
2023/06/30 05:48:37;;;;;;;16.30;7.03;;;;;;;23.31;55.15;100582.75;4972868;28;20519;-77
2023/06/30 05:51:03;;;;;;;43.28;8.55;;;;;;;23.34;55.41;100567.75;4973185;28;20090;-81
2023/06/30 05:53:28;;;;;;;27.30;7.32;;;;;;;23.48;54.79;100566.75;4972633;28;20093;-78
2023/06/30 05:55:55;;;;;;;29.23;7.30;;;;;;;23.56;54.49;100576.69;4972624;28;20019;-77
2023/06/30 05:58:23;;;;;;;18.73;7.65;;;;;;;23.64;54.47;100576.47;4957145;28;20030;-81
2023/06/30 06:00:48;;;;;;;29.50;8.70;;;;;;;23.67;54.86;100571.41;4973301;28;20519;-79
2023/06/30 06:03:14;;;;;;;45.00;9.07;;;;;;;23.65;54.56;100551.56;4975137;28;20061;-86
2023/06/30 06:05:40;;;;;;;26.35;9.52;;;;;;;23.85;54.24;100559.78;4973845;28;20031;-84
2023/06/30 06:08:05;;;;;;;19.50;7.75;;;;;;;23.93;53.93;100558.72;4957420;28;20038;-83
2023/06/30 06:10:30;;;;;;;26.50;9.70;;;;;;;24.03;53.92;100559.13;4976410;28;20046;-83
2023/06/30 06:12:56;;;;;;;37.00;9.95;;;;;;;24.12;53.76;100561.47;4959591;28;20051;-84
2023/06/30 06:15:21;;;;;;;15.45;8.48;;;;;;;24.18;53.46;100559.75;4977073;28;20085;-84
2023/06/30 06:17:47;;;;;;;28.33;12.63;;;;;;;24.17;53.70;100544.31;4975872;28;20391;-83
2023/06/30 06:20:12;;;;;;;31.17;7.85;;;;;;;24.35;53.62;100575.56;4975115;28;20411;-83
2023/06/30 06:22:38;;;;;;;32.72;10.32;;;;;;;24.31;53.34;100554.25;4974837;28;20063;-83
2023/06/30 06:25:04;;;;;;;21.10;5.60;;;;;;;24.34;52.33;100551.06;4977389;28;20042;-84
2023/06/30 06:27:33;;;;;;;17.02;5.30;;;;;;;24.46;51.89;100563.09;4978376;28;20467;-85
2023/06/30 06:29:59;;;;;;;19.38;5.50;;;;;;;24.48;51.60;100543.59;4959426;28;20753;-84
2023/06/30 06:32:24;;;;;;;18.08;5.55;;;;;;;24.45;51.54;100530.28;4980567;28;20039;-83
2023/06/30 06:34:49;;;;;;;14.13;4.88;;;;;;;24.67;50.90;100551.78;4958831;28;20037;-84
2023/06/30 06:37:15;;;;;;;28.83;5.13;;;;;;;24.83;50.77;100550.47;4977894;28;20031;-85
2023/06/30 06:39:40;;;;;;;18.10;4.82;;;;;;;24.79;50.37;100519.78;4977983;28;20035;-83
2023/06/30 06:42:06;;;;;;;13.93;4.90;;;;;;;24.93;50.54;100523.31;4976262;28;20107;-83
2023/06/30 06:44:32;;;;;;;17.80;4.60;;;;;;;25.15;50.26;100543.94;4977706;28;20031;-83
2023/06/30 06:47:34;;;;;;;12.95;5.50;;;;;;;25.21;50.61;100537.53;4975862;28;20365;-85
2023/06/30 06:50:00;;;;;;;13.25;4.90;;;;;;;25.24;50.25;100536.22;4974169;28;20491;-85
2023/06/30 06:52:26;;;;;;;20.60;5.55;;;;;;;25.33;49.76;100549.50;4976767;28;20026;-82
2023/06/30 06:54:51;;;;;;;11.18;4.85;;;;;;;25.25;49.65;100521.41;4976697;28;20093;-82
2023/06/30 06:57:17;;;;;;;17.92;5.47;;;;;;;25.30;49.60;100529.84;4960388;28;20026;-83
2023/06/30 06:59:43;;;;;;;15.65;5.57;;;;;;;25.48;49.21;100543.69;4976804;28;20057;-83
2023/06/30 07:02:09;;;;;;;20.98;5.10;;;;;;;25.53;49.00;100535.66;4978174;28;20662;-84
2023/06/30 07:04:34;;;;;;;12.55;4.13;;;;;;;25.61;48.52;100537.25;4977492;28;20070;-82
2023/06/30 07:07:00;;;;;;;10.98;4.55;;;;;;;25.54;48.86;100526.28;4973171;28;20058;-81
2023/06/30 07:09:25;;;;;;;18.90;4.45;;;;;;;25.64;48.03;100537.66;4973023;28;20708;-81
2023/06/30 07:11:51;;;;;;;11.63;3.95;;;;;;;25.70;48.13;100539.50;4972693;28;20027;-80
2023/06/30 07:14:16;;;;;;;16.35;4.72;;;;;;;25.70;48.08;100541.41;4972402;28;20155;-81
2023/06/30 07:16:41;;;;;;;11.45;5.05;;;;;;;25.73;48.20;100536.31;4972271;28;20517;-80
2023/06/30 07:19:07;;;;;;;9.75;4.55;;;;;;;25.77;48.36;100537.53;4972599;28;20603;-80
2023/06/30 07:21:32;;;;;;;7.53;3.63;;;;;;;25.86;47.58;100527.06;4972293;28;20027;-79
2023/06/30 07:23:58;;;;;;;11.07;3.45;;;;;;;25.91;46.86;100516.19;4972795;28;20030;-81
2023/06/30 07:26:23;;;;;;;15.70;3.85;;;;;;;26.08;46.40;100530.25;4973034;28;20169;-80
2023/06/30 07:28:49;;;;;;;20.45;3.75;;;;;;;26.18;46.39;100527.81;4972008;28;20077;-81
2023/06/30 07:31:14;;;;;;;17.42;3.50;;;;;;;26.25;46.13;100534.97;4971789;28;20063;-87
2023/06/30 07:33:42;;;;;;;18.20;5.03;;;;;;;26.39;46.59;100538.41;4977608;28;20027;-91
2023/06/30 07:36:07;;;;;;;12.95;4.72;;;;;;;26.36;45.94;100519.56;4964534;28;20109;-79
2023/06/30 07:38:33;;;;;;;19.70;4.97;;;;;;;26.43;46.03;100518.41;4972319;28;20031;-83
2023/06/30 07:40:58;;;;;;;14.30;4.78;;;;;;;26.66;45.75;100536.16;4971855;28;20666;-82
2023/06/30 07:43:24;;;;;;;14.30;4.78;;;;;;;26.73;46.03;100537.75;4972684;28;20037;-81
2023/06/30 07:45:50;;;;;;;17.90;4.07;;;;;;;26.86;44.31;100532.09;4970292;28;20031;-80
2023/06/30 07:48:15;;;;;;;16.17;6.15;;;;;;;26.96;43.29;100529.63;4970899;28;20037;-80
2023/06/30 07:50:40;;;;;;;16.50;4.72;;;;;;;27.05;42.26;100535.66;4972851;28;20062;-81
2023/06/30 07:53:08;;;;;;;11.63;3.60;;;;;;;27.10;41.75;100532.19;4957153;28;20070;-83
2023/06/30 07:55:33;;;;;;;4.90;2.35;;;;;;;27.20;41.24;100532.47;4974441;28;20035;-80
2023/06/30 07:57:59;;;;;;;10.57;3.13;;;;;;;27.25;41.17;100524.31;4977728;28;20470;-86
2023/06/30 08:00:28;;;;;;;8.32;2.50;;;;;;;27.32;41.06;100530.56;4981211;28;20093;-86
2023/06/30 08:02:54;;;;;;;10.63;3.63;;;;;;;27.46;41.62;100534.84;4960533;28;20380;-81
2023/06/30 08:05:20;;;;;;;15.65;3.33;;;;;;;27.57;41.97;100534.03;4975454;28;20062;-83
2023/06/30 08:07:46;;;;;;;9.50;3.05;;;;;;;27.54;42.06;100520.69;4979764;28;20046;-85
2023/06/30 08:10:12;;;;;;;2.83;2.35;;;;;;;27.77;40.54;100545.56;4977778;28;20455;-82
2023/06/30 08:12:37;;;;;;;11.07;2.47;;;;;;;27.74;40.12;100534.16;4977919;28;20066;-81
2023/06/30 08:15:04;;;;;;;19.20;3.05;;;;;;;27.83;41.13;100533.56;4979346;28;20035;-91
2023/06/30 08:17:29;;;;;;;21.17;3.10;;;;;;;27.96;41.95;100532.47;4980060;28;20062;-81
2023/06/30 08:19:54;;;;;;;30.75;5.07;;;;;;;28.00;41.51;100512.41;4956550;28;20022;-84
2023/06/30 08:22:21;;;;;;;5.00;2.42;;;;;;;28.10;40.00;100511.84;4973198;28;20085;-75
2023/06/30 08:24:47;;;;;;;10.73;3.70;;;;;;;28.10;39.55;100525.66;4971727;28;20023;-83
2023/06/30 08:27:13;;;;;;;31.33;3.15;;;;;;;28.26;39.51;100521.31;4971994;28;20027;-81
2023/06/30 08:29:39;;;;;;;4.72;2.42;;;;;;;28.25;38.38;100516.88;4986319;28;20036;-91
2023/06/30 08:32:04;;;;;;;6.57;2.13;;;;;;;28.27;37.88;100511.94;4989235;28;20422;-83
2023/06/30 08:34:31;;;;;;;6.45;2.20;;;;;;;28.40;37.76;100518.03;4989731;28;20061;-92
2023/06/30 08:36:57;;;;;;;11.95;2.63;;;;;;;28.50;37.44;100496.09;4978209;28;20030;-89
2023/06/30 08:39:23;;;;;;;11.55;2.88;;;;;;;28.54;36.80;100486.22;4993918;28;20034;-92
2023/06/30 08:41:56;;;;;;;4.93;2.08;;;;;;;28.44;36.15;100486.00;4978412;28;20042;-92
2023/06/30 08:44:25;;;;;;;12.05;2.08;;;;;;;28.45;35.81;100497.94;4997287;28;20062;-93
2023/06/30 08:46:54;;;;;;;13.88;2.30;;;;;;;28.37;35.84;100498.31;4962380;28;20041;-82
2023/06/30 08:49:24;;;;;;;14.60;2.35;;;;;;;28.60;36.11;100506.53;4982452;28;20051;-82
2023/06/30 08:51:59;;;;;;;5.50;1.80;;;;;;;28.66;34.45;100494.53;4991456;28;20043;-89
2023/06/30 08:54:25;;;;;;;7.90;2.38;;;;;;;28.81;35.13;100488.44;4994153;28;20030;-86
2023/06/30 08:56:53;;;;;;;5.57;2.38;;;;;;;28.94;35.02;100486.22;4992477;28;20034;-89
2023/06/30 08:59:18;;;;;;;6.28;1.77;;;;;;;29.07;35.49;100487.84;4989463;28;20038;-81
2023/06/30 09:01:45;;;;;;;8.10;2.25;;;;;;;29.16;34.22;100498.28;4975876;28;20509;-88
2023/06/30 09:04:12;;;;;;;9.88;2.70;;;;;;;29.27;34.41;100504.00;4942933;28;20153;-88
2023/06/30 09:06:42;;;;;;;22.27;3.60;;;;;;;29.34;34.69;100501.94;4982461;28;20061;-87
2023/06/30 09:09:10;;;;;;;8.65;1.90;;;;;;;29.36;34.08;100499.72;4995171;28;20035;-88
2023/06/30 09:11:36;;;;;;;7.30;2.85;;;;;;;29.30;34.21;100476.66;4970088;28;20042;-87
2023/06/30 09:14:03;;;;;;;9.27;1.90;;;;;;;29.46;34.08;100488.84;4983948;28;20350;-86
2023/06/30 09:16:32;;;;;;;10.27;2.63;;;;;;;29.53;34.29;100495.06;4994914;28;20027;-89
2023/06/30 09:18:58;;;;;;;17.75;3.42;;;;;;;29.58;33.84;100492.34;4995185;28;20197;-86
2023/06/30 09:21:24;;;;;;;10.90;2.22;;;;;;;29.55;33.32;100471.53;4991972;28;20925;-85
2023/06/30 09:23:51;;;;;;;10.55;2.15;;;;;;;29.63;32.75;100484.13;4991310;28;20022;-86
2023/06/30 09:26:17;;;;;;;25.17;4.13;;;;;;;29.56;33.01;100466.84;4988286;28;20027;-78
2023/06/30 09:28:43;;;;;;;25.90;2.80;;;;;;;29.67;32.96;100496.38;4980975;28;20388;-82
2023/06/30 09:31:09;;;;;;;3.45;2.20;;;;;;;29.73;33.02;100492.59;4972386;28;20094;-81
2023/06/30 09:33:35;;;;;;;5.28;1.70;;;;;;;29.55;32.45;100470.69;4971519;28;20058;-89
2023/06/30 09:36:03;;;;;;;7.72;1.83;;;;;;;29.52;32.48;100485.91;4970960;28;20027;-82
2023/06/30 09:38:29;;;;;;;21.10;2.83;;;;;;;29.42;32.63;100484.88;4970210;28;20034;-83
2023/06/30 09:40:56;;;;;;;17.45;3.17;;;;;;;29.38;32.79;100475.41;4971075;28;20035;-83
2023/06/30 09:43:23;;;;;;;15.00;2.72;;;;;;;29.43;32.82;100484.63;4970333;28;20027;-84
2023/06/30 09:46:02;;;;;;;10.02;3.22;;;;;;;29.26;32.71;100471.88;4971298;28;20037;-85
2023/06/30 09:48:33;;;;;;;10.02;2.70;;;;;;;29.41;32.47;100485.97;4952955;28;20422;-82
2023/06/30 09:50:59;;;;;;;14.90;3.65;;;;;;;29.42;32.54;100491.25;4970525;28;20039;-82
2023/06/30 09:53:25;;;;;;;36.20;4.90;;;;;;;29.32;36.05;100476.41;4971620;28;20545;-82
2023/06/30 09:55:51;;;;;;;178.07;21.83;;;;;;;29.05;40.24;100496.38;4954784;28;20035;-84
2023/06/30 09:58:19;;;;;;;12.45;3.15;;;;;;;28.92;41.83;100488.41;4967222;28;20034;-81
2023/06/30 10:00:45;;;;;;;23.48;3.38;;;;;;;28.85;41.77;100486.88;4968941;28;20035;-79
2023/06/30 10:03:16;;;;;;;26.42;4.78;;;;;;;28.89;41.36;100488.91;4969130;28;20034;-81
2023/06/30 10:05:42;;;;;;;38.38;4.40;;;;;;;28.85;44.36;100484.09;4969757;28;20443;-86
2023/06/30 10:08:09;;;;;;;19.08;4.20;;;;;;;28.66;45.07;100477.91;4971584;28;20535;-85
2023/06/30 10:10:35;;;;;;;47.22;6.22;;;;;;;28.87;44.54;100490.22;4972577;28;20035;-79
2023/06/30 10:13:02;;;;;;;71.03;7.20;;;;;;;28.48;44.73;100455.94;4973494;28;20127;-84
2023/06/30 10:15:29;;;;;;;20.73;5.22;;;;;;;28.68;43.93;100489.59;4974608;28;20031;-91
2023/06/30 10:17:57;;;;;;;23.95;3.78;;;;;;;28.23;44.73;100472.00;4973955;28;20031;-82
2023/06/30 10:20:23;;;;;;;20.75;3.42;;;;;;;28.23;45.18;100469.22;4972792;28;20418;-84
2023/06/30 10:22:51;;;;;;;6.72;3.08;;;;;;;28.29;44.98;100465.47;4976198;28;20027;-86
2023/06/30 10:25:18;;;;;;;22.45;5.10;;;;;;;28.22;45.20;100482.25;4955860;28;20483;-85
2023/06/30 10:27:46;;;;;;;33.95;6.97;;;;;;;28.22;44.90;100470.34;4957030;28;20034;-86
2023/06/30 10:30:12;;;;;;;31.73;7.10;;;;;;;28.12;44.95;100475.63;4973137;28;20031;-88
2023/06/30 10:32:39;;;;;;;8.50;2.95;;;;;;;27.83;44.73;100461.69;4974423;28;20039;-90
2023/06/30 10:35:05;;;;;;;23.40;4.07;;;;;;;27.89;46.12;100471.78;4955657;28;20093;-84
2023/06/30 10:37:31;;;;;;;7.28;2.92;;;;;;;28.09;46.32;100480.56;4973121;28;20027;-83
2023/06/30 10:39:57;;;;;;;72.38;10.35;;;;;;;28.01;44.77;100444.94;4979219;28;20026;-84
2023/06/30 10:42:26;;;;;;;19.42;3.85;;;;;;;28.32;45.04;100465.00;4975701;28;20041;-87
2023/06/30 10:44:59;;;;;;;15.27;3.85;;;;;;;28.47;43.99;100474.44;4972669;28;20031;-86
2023/06/30 10:47:27;;;;;;;12.80;2.78;;;;;;;28.45;44.25;100464.72;4972559;28;20034;-80
2023/06/30 10:49:53;;;;;;;4.13;2.90;;;;;;;28.42;43.11;100459.69;4972815;28;20708;-85
2023/06/30 10:52:27;;;;;;;11.90;3.33;;;;;;;28.68;43.81;100469.38;4972781;28;20058;-84
2023/06/30 10:54:53;;;;;;;14.15;3.65;;;;;;;28.83;43.78;100467.75;4972912;28;20054;-82
2023/06/30 10:57:23;;;;;;;13.75;2.80;;;;;;;28.97;43.73;100452.50;4972572;28;20030;-86
2023/06/30 11:00:11;;;;;;;9.07;3.10;;;;;;;29.16;43.59;100462.25;4972878;28;20027;-83
2023/06/30 11:02:45;;;;;;;54.15;4.70;;;;;;;29.30;43.62;100456.41;4972660;28;20042;-81
2023/06/30 11:05:20;;;;;;;12.15;3.35;;;;;;;29.39;43.94;100449.34;4972398;28;20183;-79
2023/06/30 11:07:48;;;;;;;11.70;3.00;;;;;;;29.58;42.33;100454.38;4971558;28;20081;-80
2023/06/30 11:10:25;;;;;;;11.50;3.38;;;;;;;29.76;42.21;100456.03;4971648;28;20039;-80
2023/06/30 11:12:53;;;;;;;9.73;3.25;;;;;;;29.54;43.06;100458.75;4970821;28;20082;-84
2023/06/30 11:15:33;;;;;;;12.65;3.40;;;;;;;29.60;42.68;100459.69;4972040;28;20038;-78